Latest Coastal Weather Observations for Cape Nelson

IDS60701

Issued at 9:31 pm CDT Monday 20 February 2017 (issued every 10 minutes, with the page automatically refreshed every 10 minutes)

About coastal observations | Map of coastal stations | Coastal observations for SA | Marine services | Other Formats
Station Details ID: 090184 Name: CAPE NELSON LIGHTHOUSE Lat: -38.43 Lon: 141.54 Height: 45.4 m
Data from the previous 72 hours. | See also: Recent months at Cape Nelson
Date/Time
CDT
Temp
°C
Wind Pressure Rain since
9am
mm
Weather Cloud Vis
km
Sea
Height
m
Swell
Dir  Spd
kts
Gust
kts
hPa Trend Height
m
Period
s
Dir
20/09:00pm 14.6 S 7 11 1019.2 - 0.2 - - - - - - -
20/08:30pm 14.5 SE 6 9 1018.9 - 0.2 - - - - - - -
20/08:00pm 14.8 S 8 12 1018.6 - 0.2 - - - - - - -
20/07:30pm 15.2 S 9 12 1018.3 - 0.2 - - - - - - -
20/07:00pm 15.6 S 11 15 1018.0 - 0.2 - - - - - - -
20/06:30pm 15.6 S 10 15 1017.5 - 0.2 - - - - - - -
20/06:00pm 15.8 SSE 7 11 1017.3 - 0.2 - - - - - - -
20/05:30pm 16.4 SSE 9 15 1017.2 - 0.2 - - - - - - -
20/05:00pm 15.9 SSE 8 14 1016.9 - 0.2 - - - - - - -
20/04:30pm 17.0 NE 7 12 1016.7 - 0.2 - - - - - - -
20/04:00pm 17.3 E 8 15 1016.5 - 0.2 - - - - - - -
20/03:30pm 17.5 E 8 15 1016.6 - 0.2 - - - - - - -
20/03:00pm 16.8 SSE 8 15 1016.5 - 0.2 - - - - - - -
20/02:30pm 17.7 NE 8 18 1016.5 - 0.2 - - - - - - -
20/02:00pm 16.9 ESE 8 14 1016.5 - 0.2 - - - - - - -
20/01:30pm 16.0 SSE 11 17 1016.7 - 0.2 - - - - - - -
20/01:14pm 15.9 S 16 23 1016.6 - 0.2 - - - - - - -
20/01:00pm 17.1 NE 9 13 1016.4 - 0.2 - - - - - - -
20/12:30pm 18.1 NNE 8 13 1016.4 - 0.2 - - - - - - -
20/12:00pm 17.6 ESE 9 17 1016.5 - 0.0 - - - - - - -
20/11:30am 16.4 SSE 9 13 1016.5 - 0.0 - - - - - - -
20/11:00am 16.2 SSE 9 16 1016.5 - 0.0 - - - - - - -
20/10:30am 15.4 SE 9 16 1016.3 - 0.0 - - - - - - -
20/10:00am 14.2 NNE 5 10 1016.3 - 0.0 - - - - - - -
20/09:30am 14.2 NNE 8 14 1016.0 - 0.0 - - - - - - -
20/09:00am 14.8 SSE 11 17 1015.7 - 0.0 - - - - - - -
20/08:30am 14.5 SSE 12 20 1015.5 - 2.2 - - - - - - -
20/08:00am 14.4 S 11 23 1015.3 - 2.2 - - - - - - -
20/07:30am 14.4 SE 10 18 1014.5 - 2.2 - - - - - - -
20/07:00am 14.3 S 11 18 1014.2 - 2.2 - - - - - - -
20/06:30am 14.3 S 13 22 1013.9 - 2.2 - - - - - - -
20/06:00am 14.5 S 13 21 1013.6 - 2.2 - - - - - - -
20/05:55am 14.4 S 16 26 1013.5 - 2.2 - - - - - - -
20/05:30am 14.4 S 12 22 1013.2 - 2.2 - - - - - - -
20/05:00am 14.2 S 15 26 1013.4 - 2.2 - - - - - - -
20/04:39am 14.4 S 17 27 1013.2 - 2.2 - - - - - - -
20/04:30am 14.5 S 16 24 1013.2 - 2.2 - - - - - - -
20/04:00am 14.4 S 15 26 1013.2 - 2.2 - - - - - - -
20/03:44am 14.4 S 15 25 1013.1 - 2.2 - - - - - - -
20/03:30am 14.2 S 18 26 1013.1 - 2.2 - - - - - - -
20/03:08am 14.1 S 16 26 1013.0 - 2.2 - - - - - - -
20/03:00am 14.2 S 16 24 1013.1 - 2.2 - - - - - - -
20/02:34am 14.3 S 15 25 1012.9 - 2.2 - - - - - - -
20/02:30am 14.4 S 13 22 1013.0 - 2.2 - - - - - - -
20/02:04am 14.3 S 16 26 1013.1 - 2.2 - - - - - - -
20/02:00am 14.2 S 15 22 1013.0 - 2.2 - - - - - - -
20/01:48am 14.1 S 15 26 1013.1 - 2.2 - - - - - - -
20/01:30am 14.3 S 15 22 1013.2 - 2.2 - - - - - - -
20/01:00am 14.0 S 15 30 1013.2 - 2.2 - - - - - - -
20/12:33am 13.8 S 15 25 1013.2 - 2.2 - - - - - - -
20/12:30am 14.2 S 14 23 1013.0 - 2.2 - - - - - - -
20/12:00am 14.0 SSE 12 20 1013.0 - 2.2 - - - - - - -
 
Date/Time
CDT
Temp
°C
Wind Pressure Rain since
9am
mm
Weather Cloud Vis
km
Sea
Height
m
Swell
Dir  Spd
kts
Gust
kts
hPa Trend Height
m
Period
s
Dir
19/11:30pm 13.5 ESE 10 20 1013.2 - 2.2 - - - - - - -
19/11:00pm 12.5 S 19 36 1013.1 - 2.2 - - - - - - -
19/10:50pm 14.2 SSE 14 28 1013.2 - 2.2 - - - - - - -
19/10:30pm 13.8 SSE 12 26 1013.1 - 2.2 - - - - - - -
19/10:03pm 14.3 S 15 25 1013.1 - 2.2 - - - - - - -
19/10:00pm 14.3 SSE 13 23 1013.1 - 2.2 - - - - - - -
19/09:30pm 13.9 SSE 13 24 1012.9 - 2.2 - - - - - - -
19/09:00pm 13.6 SSE 14 22 1012.6 - 2.2 - - - - - - -
19/08:30pm 13.9 SSE 13 26 1012.4 - 2.2 - - - - - - -
19/08:04pm 13.7 SE 13 25 1012.0 - 2.2 - - - - - - -
19/08:00pm 13.8 SE 12 24 1011.9 - 2.2 - - - - - - -
19/07:30pm 13.7 SSE 14 25 1011.6 - 2.2 - - - - - - -
19/07:00pm 14.1 ESE 13 26 1011.2 - 2.2 - - - - - - -
19/06:52pm 14.1 E 13 27 1011.3 - 2.2 - - - - - - -
19/06:30pm 14.2 SE 12 19 1010.9 - 2.2 - - - - - - -
19/06:00pm 13.9 S 13 22 1011.1 - 2.2 - - - - - - -
19/05:30pm 13.9 SE 12 24 1010.8 - 2.2 Recent precip. - - - - - -
19/05:00pm 13.5 S 13 22 1010.6 - 2.2 - - - - - - -
19/04:30pm 13.4 SSE 14 23 1010.7 - 1.8 - - - - - - -
19/04:00pm 13.1 SSE 13 27 1010.5 - 1.8 - - - - - - -
19/03:31pm 15.0 NW 13 31 1010.7 - 0.2 - - - - - - -
19/03:30pm 15.2 NNW 12 23 1010.7 - 0.2 - - - - - - -
19/03:00pm 15.2 N 12 21 1010.4 - 0.2 - - - - - - -
19/02:30pm 16.2 NE 11 19 1010.5 - 0.2 - - - - - - -
19/02:00pm 14.8 NE 12 19 1010.4 - 0.2 - - - - - - -
19/01:30pm 15.7 NE 11 17 1010.4 - 0.2 - - - - - - -
19/01:00pm 15.6 NNE 11 19 1010.3 - 0.2 - - - - - - -
19/12:30pm 15.7 NNE 12 18 1010.6 - 0.2 - - - - - - -
19/12:00pm 15.6 NE 12 20 1010.6 - 0.2 - - - - - - -
19/11:30am 15.0 NNE 11 19 1011.0 - 0.2 - - - - - - -
19/11:00am 14.3 S 14 23 1011.1 - 0.2 - - - - - - -
19/10:40am 13.7 SE 17 31 1011.2 - 0.2 - - - - - - -
19/10:30am 14.2 ENE 13 28 1010.8 - 0.2 - - - - - - -
19/10:00am 14.5 ENE 12 18 1010.8 - 0.2 - - - - - - -
19/09:30am 13.6 NNW 13 20 1010.4 - 0.2 - - - - - - -
19/09:23am 13.3 WNW 16 26 1010.4 - 0.2 - - - - - - -
19/09:00am 13.4 SE 12 24 1010.6 - 0.0 - - - - - - -
19/08:30am 12.9 ESE 13 25 1010.0 - 5.2 Recent precip. - - - - - -
19/08:00am 12.4 SSE 16 29 1010.2 - 5.0 - - - - - - -
19/07:33am 12.9 NNE 13 30 1009.6 - 4.4 - - - - - - -
19/07:30am 13.4 NNE 11 18 1009.5 - 4.2 - - - - - - -
19/07:00am 12.6 ENE 12 23 1009.8 - 4.0 - - - - - - -
19/06:30am 12.6 NE 10 18 1009.6 - 3.8 - - - - - - -
19/06:03am 12.0 NNE 14 25 1008.9 - 3.4 - - - - - - -
19/06:00am 12.3 NNW 13 23 1008.7 - 3.4 - - - - - - -
19/05:30am 13.5 W 19 29 1009.2 - 3.0 Recent precip. - - - - - -
19/05:17am 13.3 NW 14 25 1009.1 - 3.0 - - - - - - -
19/05:00am 12.4 NNE 14 25 1008.9 - 3.0 - - - - - - -
19/04:53am 13.2 NNW 13 25 1008.7 - 3.0 - - - - - - -
19/04:30am 13.7 NNW 14 24 1008.6 - 2.6 - - - - - - -
19/04:19am 13.6 W 17 26 1009.2 - 2.4 - - - - - - -
19/04:15am 13.6 W 19 27 1009.5 - 2.4 - - - - - - -
19/04:05am 14.4 NNW 16 28 1009.1 - 2.4 - - - - - - -
19/04:00am 14.6 NW 16 31 1009.1 - 2.4 - - - - - - -
19/03:34am 15.0 W 19 29 1009.4 - 2.4 - - - - - - -
19/03:30am 14.8 W 20 29 1009.6 - 2.4 - - - - - - -
19/03:00am 14.8 W 21 31 1009.8 - 2.4 - - - - - - -
19/02:36am 14.2 W 19 31 1010.0 - 2.4 - - - - - - -
19/02:30am 13.9 W 20 28 1010.2 - 2.4 Recent precip. - - - - - -
19/02:13am 14.5 W 22 32 1010.4 - 2.4 - - - - - - -
19/02:00am 14.0 W 21 29 1010.7 - 2.4 - - - - - - -
19/01:30am 14.0 W 19 31 1010.9 - 2.2 - - - - - - -
19/01:01am 13.4 W 16 26 1011.2 - 2.2 - - - - - - -
19/01:00am 13.8 W 16 23 1011.3 - 2.2 - - - - - - -
19/12:30am 12.9 W 19 28 1011.8 - 2.2 - - - - - - -
19/12:07am 14.2 W 16 26 1011.6 - 2.0 - - - - - - -
19/12:00am 14.1 W 18 25 1011.8 - 2.0 - - - - - - -
 
Date/Time
CDT
Temp
°C
Wind Pressure Rain since
9am
mm
Weather Cloud Vis
km
Sea
Height
m
Swell
Dir  Spd
kts
Gust
kts
hPa Trend Height
m
Period
s
Dir
18/11:30pm 14.2 W 15 25 1012.0 - 1.8 - - - - - - -
18/11:19pm 14.1 W 17 27 1012.1 - 1.8 - - - - - - -
18/11:00pm 14.5 W 18 27 1012.1 - 1.8 - - - - - - -
18/10:30pm 14.5 W 18 29 1012.4 - 1.8 - - - - - - -
18/10:25pm 14.4 W 19 29 1012.4 - 1.8 - - - - - - -
18/10:00pm 14.2 W 21 26 1012.7 - 1.8 - - - - - - -
18/09:30pm 14.1 W 15 25 1012.8 - 1.8 - - - - - - -
18/09:00pm 13.4 W 18 29 1012.7 - 1.8 - - - - - - -
18/08:38pm 14.4 W 15 25 1012.5 - 1.8 - - - - - - -
18/08:30pm 14.3 W 15 23 1012.5 - 1.8 - - - - - - -
18/08:05pm 14.2 W 16 26 1012.3 - 1.8 - - - - - - -
18/08:00pm 14.1 W 15 21 1012.3 - 1.8 - - - - - - -
18/07:30pm 13.1 W 19 28 1012.4 - 1.8 - - - - - - -
18/07:24pm 13.4 WNW 14 27 1012.3 - 1.8 - - - - - - -
18/07:00pm 13.9 W 13 21 1012.2 - 1.6 - - - - - - -
18/06:30pm 14.8 W 19 25 1012.1 - 1.6 - - - - - - -
18/06:00pm 14.9 W 17 24 1012.1 - 1.6 - - - - - - -
18/05:30pm 15.3 NW 12 19 1012.0 - 1.6 - - - - - - -
18/05:00pm 14.9 W 15 22 1012.1 - 1.6 - - - - - - -
18/04:30pm 14.7 WNW 10 13 1012.3 - 1.6 - - - - - - -
18/04:00pm 13.0 W 11 16 1012.6 - 1.6 - - - - - - -
18/03:35pm 14.3 W 15 30 1012.4 - 1.4 - - - - - - -
18/03:30pm 14.9 W 13 19 1012.5 - 1.4 - - - - - - -
18/03:00pm 15.7 NNW 10 15 1012.5 - 1.4 - - - - - - -
18/02:30pm 15.3 WNW 14 20 1012.2 - 1.4 - - - - - - -
18/02:00pm 16.0 NNW 10 18 1012.5 - 1.4 - - - - - - -
18/01:30pm 14.6 NE 11 20 1012.2 - 1.4 - - - - - - -
18/01:00pm 14.5 W 11 15 1012.4 - 1.4 - - - - - - -
18/12:30pm 13.4 E 7 19 1012.4 - 1.4 - - - - - - -
18/12:00pm 14.9 W 15 20 1012.3 - 1.4 - - - - - - -
18/11:30am 14.4 W 13 19 1012.3 - 1.4 - - - - - - -
18/11:00am 14.3 W 11 15 1012.5 - 1.4 - - - - - - -
18/10:30am 11.5 WNW 13 17 1012.6 - 1.4 - - - - - - -
18/10:06am 13.1 NW 12 27 1012.3 - 1.0 - - - - - - -
18/10:00am 15.5 WNW 12 19 1011.9 - 0.0 - - - - - - -
18/09:30am 14.3 W 15 22 1011.8 - 0.0 - - - - - - -
18/09:23am 14.1 NW 11 21 1011.8 - 0.0 - - - - - - -
18/09:00am 12.8 SSE 7 19 1011.5 - 0.0 - - - - - - -
18/08:30am 14.9 NNW 9 19 1011.1 - 2.6 - - - - - - -
18/08:00am 14.4 NW 11 18 1010.9 - 2.6 - - - - - - -
18/07:30am 14.1 W 13 21 1010.8 - 2.6 - - - - - - -
18/07:00am 13.8 NW 10 20 1010.4 - 2.6 - - - - - - -
18/06:30am 13.7 NW 13 22 1009.9 - 2.6 - - - - - - -
18/06:00am 13.8 WNW 13 21 1009.9 - 2.6 - - - - - - -
18/05:30am 13.9 W 14 22 1009.8 - 2.6 - - - - - - -
18/05:00am 13.8 W 14 22 1009.6 - 2.6 - - - - - - -
18/04:30am 14.1 W 17 23 1009.6 - 2.6 - - - - - - -
18/04:10am 14.2 WNW 15 26 1009.6 - 2.6 - - - - - - -
18/04:00am 13.9 WNW 14 24 1009.6 - 2.6 - - - - - - -
18/03:47am 14.2 W 15 26 1009.7 - 2.6 - - - - - - -
18/03:30am 13.8 W 14 20 1009.9 - 2.6 - - - - - - -
18/03:00am 14.0 W 15 22 1010.0 - 2.6 - - - - - - -
18/02:51am 13.8 W 14 21 1009.8 - 2.6 - - - - - - -
18/02:30am 13.7 W 22 30 1010.1 - 2.6 Recent precip. - - - - - -
18/02:18am 13.7 W 15 29 1010.0 - 2.6 - - - - - - -
18/02:00am 13.3 WNW 12 21 1010.0 - 2.6 - - - - - - -
18/01:33am 13.6 NW 13 33 1010.2 - 2.4 - - - - - - -
18/01:30am 13.5 N 11 21 1010.1 - 2.4 - - - - - - -
18/01:00am 13.7 W 12 18 1010.4 - 2.4 - - - - - - -
18/12:30am 14.7 W 17 25 1010.3 - 1.6 - - - - - - -
18/12:00am 14.2 W 14 21 1010.7 - 1.6 - - - - - - -
 
Date/Time
CDT
Temp
°C
Wind Pressure Rain since
9am
mm
Weather Cloud Vis
km
Sea
Height
m
Swell
Dir  Spd
kts
Gust
kts
hPa Trend Height
m
Period
s
Dir
17/11:30pm 14.3 W 13 19 1010.8 - 1.6 - - - - - - -
17/11:00pm 14.5 NW 11 19 1010.8 - 1.6 - - - - - - -
17/10:30pm 14.3 W 15 23 1011.2 - 1.6 - - - - - - -
17/10:00pm 14.1 WNW 13 19 1011.2 - 1.6 - - - - - - -
17/09:37pm 15.2 W 17 27 1010.8 - 1.6 - - - - - - -
17/09:30pm 15.1 W 16 24 1010.9 - 1.6 - - - - - - -

Other Formats:

Comma delimited format used in spreadsheet applications
http://www.bom.gov.au/fwo/IDS60701/IDS60701.94826.axf

JavaScript Object Notation format (JSON) in row-major order
http://www.bom.gov.au/fwo/IDS60701/IDS60701.94826.json